KMDJ/MDJ METAR and TAF weather

Enter ICAO airport designator
Station Type Date Time Source
KMDJ METAR 2019/12/11 12:15 UTC NOAA

KMDJ 111215Z AUTO 04027G34KT 10SM 14/12 A3027 RMK A01


Station Type Date Time Source
KMDJ Decoded METAR 2019/12/11 12:15 UTC NOAA

Mississippi Canyon, LA, United States (KMDJ) 28-38-33N 089-47-39W
Dec 11, 2019 - 07:15 AM EST / 2019.12.11 1215 UTC
Wind: from the NE (040 degrees) at 31 MPH (27 KT) gusting to 39 MPH (34 KT):0
Visibility: 10 mile(s):0
Temperature: 57 F (14 C)
Dew Point: 53 F (12 C)
Relative Humidity: 87%
Pressure (altimeter): 30.27 in. Hg (1025 hPa)
ob: KMDJ 111215Z AUTO 04027G34KT 10SM 14/12 A3027 RMK A01
cycle: 12

Station Type Date Time Source
KMDJ TAF UTC NOAA

Error!

Example: see airport list